sensor_id;sensor_type;location;lat;lon;timestamp;pressure;altitude;pressure_sealevel;temperature;humidity
22753;BME280;11543;43.144;24.684;2023-04-07T00:02:03;98613.53;;;7.43;49.57
22753;BME280;11543;43.144;24.684;2023-04-07T00:04:28;98596.81;;;7.31;49.80
22753;BME280;11543;43.144;24.684;2023-04-07T00:06:56;98612.41;;;7.36;49.41
22753;BME280;11543;43.144;24.684;2023-04-07T00:09:22;98605.53;;;7.33;49.51
22753;BME280;11543;43.144;24.684;2023-04-07T00:11:47;98615.50;;;7.41;49.93
22753;BME280;11543;43.144;24.684;2023-04-07T00:14:13;98605.13;;;7.38;49.49
22753;BME280;11543;43.144;24.684;2023-04-07T00:16:38;98612.56;;;7.44;49.83
22753;BME280;11543;43.144;24.684;2023-04-07T00:19:04;98596.69;;;7.33;50.24
22753;BME280;11543;43.144;24.684;2023-04-07T00:21:30;98614.66;;;7.50;50.64
22753;BME280;11543;43.144;24.684;2023-04-07T00:23:56;98589.09;;;7.38;50.57
22753;BME280;11543;43.144;24.684;2023-04-07T00:26:22;98611.00;;;7.51;50.37
22753;BME280;11543;43.144;24.684;2023-04-07T00:28:47;98597.25;;;7.46;49.98
22753;BME280;11543;43.144;24.684;2023-04-07T00:31:13;98588.41;;;7.36;50.18
22753;BME280;11543;43.144;24.684;2023-04-07T00:33:47;98601.19;;;7.42;50.02
22753;BME280;11543;43.144;24.684;2023-04-07T00:36:14;98592.75;;;7.37;49.92
22753;BME280;11543;43.144;24.684;2023-04-07T00:38:40;98595.56;;;7.45;50.62
22753;BME280;11543;43.144;24.684;2023-04-07T00:41:05;98599.50;;;7.41;49.97
22753;BME280;11543;43.144;24.684;2023-04-07T00:43:31;98594.44;;;7.38;49.88
22753;BME280;11543;43.144;24.684;2023-04-07T00:45:57;98608.75;;;7.47;50.09
22753;BME280;11543;43.144;24.684;2023-04-07T00:48:22;98585.44;;;7.39;49.95
22753;BME280;11543;43.144;24.684;2023-04-07T00:50:48;98589.38;;;7.35;50.24
22753;BME280;11543;43.144;24.684;2023-04-07T00:53:14;98587.69;;;7.34;49.67
22753;BME280;11543;43.144;24.684;2023-04-07T00:55:40;98596.81;;;7.41;49.50
22753;BME280;11543;43.144;24.684;2023-04-07T00:58:05;98607.91;;;7.46;49.52
22753;BME280;11543;43.144;24.684;2023-04-07T01:00:36;98596.25;;;7.28;48.65
22753;BME280;11543;43.144;24.684;2023-04-07T01:03:10;98609.03;;;7.34;49.30
22753;BME280;11543;43.144;24.684;2023-04-07T01:05:45;98591.63;;;7.30;50.13
22753;BME280;11543;43.144;24.684;2023-04-07T01:08:20;98588.41;;;7.26;49.72
22753;BME280;11543;43.144;24.684;2023-04-07T01:10:56;98591.34;;;7.33;50.16
22753;BME280;11543;43.144;24.684;2023-04-07T01:13:36;98594.72;;;7.35;49.55
22753;BME280;11543;43.144;24.684;2023-04-07T01:16:10;98591.63;;;7.30;49.42
22753;BME280;11543;43.144;24.684;2023-04-07T01:18:38;98593.88;;;7.25;49.41
22753;BME280;11543;43.144;24.684;2023-04-07T01:21:14;98582.78;;;7.20;49.82
22753;BME280;11543;43.144;24.684;2023-04-07T01:26:31;98578.16;;;7.22;49.57
22753;BME280;11543;43.144;24.684;2023-04-07T01:31:47;98586.28;;;7.20;48.82
22753;BME280;11543;43.144;24.684;2023-04-07T01:34:15;98602.88;;;7.24;49.17
22753;BME280;11543;43.144;24.684;2023-04-07T01:36:42;98595.00;;;7.22;49.03
22753;BME280;11543;43.144;24.684;2023-04-07T01:39:10;98581.53;;;7.14;49.32
22753;BME280;11543;43.144;24.684;2023-04-07T01:41:37;98577.03;;;7.15;49.03
22753;BME280;11543;43.144;24.684;2023-04-07T01:44:05;98571.69;;;7.15;49.50
22753;BME280;11543;43.144;24.684;2023-04-07T01:46:33;98578.56;;;7.08;48.97
22753;BME280;11543;43.144;24.684;2023-04-07T01:48:59;98592.75;;;7.18;49.07
22753;BME280;11543;43.144;24.684;2023-04-07T01:51:27;98579.00;;;7.13;48.87
22753;BME280;11543;43.144;24.684;2023-04-07T01:53:53;98576.31;;;7.13;48.88
22753;BME280;11543;43.144;24.684;2023-04-07T01:56:19;98591.91;;;7.17;49.06
22753;BME280;11543;43.144;24.684;2023-04-07T01:58:44;98581.66;;;7.13;48.83
22753;BME280;11543;43.144;24.684;2023-04-07T02:01:10;98574.91;;;7.09;48.81
22753;BME280;11543;43.144;24.684;2023-04-07T02:03:58;98577.88;;;7.06;48.59
22753;BME280;11543;43.144;24.684;2023-04-07T02:06:31;98574.78;;;7.00;48.74
22753;BME280;11543;43.144;24.684;2023-04-07T02:09:04;98576.75;;;6.98;48.66
22753;BME280;11543;43.144;24.684;2023-04-07T02:11:32;98572.53;;;6.96;48.27
22753;BME280;11543;43.144;24.684;2023-04-07T02:14:00;98577.16;;;6.94;48.90
22753;BME280;11543;43.144;24.684;2023-04-07T02:16:28;98564.66;;;6.94;49.11
22753;BME280;11543;43.144;24.684;2023-04-07T02:18:56;98576.75;;;6.98;48.64
22753;BME280;11543;43.144;24.684;2023-04-07T02:21:23;98566.06;;;6.98;48.94
22753;BME280;11543;43.144;24.684;2023-04-07T02:23:50;98570.84;;;7.05;49.13
22753;BME280;11543;43.144;24.684;2023-04-07T02:26:15;98573.59;;;6.84;48.21
22753;BME280;11543;43.144;24.684;2023-04-07T02:28:41;98566.31;;;6.86;49.65
22753;BME280;11543;43.144;24.684;2023-04-07T02:31:06;98569.25;;;6.92;49.63
22753;BME280;11543;43.144;24.684;2023-04-07T02:33:32;98562.25;;;6.91;49.39
22753;BME280;11543;43.144;24.684;2023-04-07T02:35:58;98571.41;;;6.98;49.57
22753;BME280;11543;43.144;24.684;2023-04-07T02:38:23;98568.28;;;6.93;49.08
22753;BME280;11543;43.144;24.684;2023-04-07T02:40:49;98568.28;;;6.93;49.37
22753;BME280;11543;43.144;24.684;2023-04-07T02:43:14;98565.75;;;6.92;49.35
22753;BME280;11543;43.144;24.684;2023-04-07T02:45:41;98563.69;;;6.95;48.47
22753;BME280;11543;43.144;24.684;2023-04-07T02:48:07;98571.41;;;6.98;48.25
22753;BME280;11543;43.144;24.684;2023-04-07T02:50:33;98564.91;;;6.91;48.69
22753;BME280;11543;43.144;24.684;2023-04-07T02:52:58;98569.53;;;6.89;49.02
22753;BME280;11543;43.144;24.684;2023-04-07T02:55:24;98570.25;;;6.91;48.36
22753;BME280;11543;43.144;24.684;2023-04-07T02:57:49;98566.88;;;6.89;48.59
22753;BME280;11543;43.144;24.684;2023-04-07T03:00:15;98561.69;;;6.88;49.13
22753;BME280;11543;43.144;24.684;2023-04-07T03:02:40;98575.06;;;6.97;48.96
22753;BME280;11543;43.144;24.684;2023-04-07T03:05:06;98561.53;;;6.89;49.12
22753;BME280;11543;43.144;24.684;2023-04-07T03:07:32;98576.75;;;6.98;49.16
22753;BME280;11543;43.144;24.684;2023-04-07T03:09:57;98570.69;;;6.96;49.15
22753;BME280;11543;43.144;24.684;2023-04-07T03:12:23;98562.94;;;6.93;48.94
22753;BME280;11543;43.144;24.684;2023-04-07T03:14:48;98576.47;;;7.01;48.90
22753;BME280;11543;43.144;24.684;2023-04-07T03:17:14;98563.22;;;6.90;49.12
22753;BME280;11543;43.144;24.684;2023-04-07T03:19:40;98587.13;;;7.01;49.49
22753;BME280;11543;43.144;24.684;2023-04-07T03:22:05;98571.25;;;7.00;49.62
22753;BME280;11543;43.144;24.684;2023-04-07T03:24:31;98569.72;;;6.97;50.42
22753;BME280;11543;43.144;24.684;2023-04-07T03:26:56;98584.31;;;7.03;50.96
22753;BME280;11543;43.144;24.684;2023-04-07T03:29:22;98575.75;;;6.99;51.46
22753;BME280;11543;43.144;24.684;2023-04-07T03:31:48;98591.63;;;7.11;51.90
22753;BME280;11543;43.144;24.684;2023-04-07T03:34:14;98571.13;;;7.01;52.82
22753;BME280;11543;43.144;24.684;2023-04-07T03:36:39;98590.22;;;7.07;52.63
22753;BME280;11543;43.144;24.684;2023-04-07T03:39:05;98579.84;;;7.03;53.32
22753;BME280;11543;43.144;24.684;2023-04-07T03:41:30;98580.38;;;6.97;53.41
22753;BME280;11543;43.144;24.684;2023-04-07T03:43:56;98587.94;;;6.92;53.19
22753;BME280;11543;43.144;24.684;2023-04-07T03:46:22;98600.69;;;6.79;53.21
22753;BME280;11543;43.144;24.684;2023-04-07T03:48:47;98596.84;;;6.62;53.50
22753;BME280;11543;43.144;24.684;2023-04-07T03:51:13;98604.94;;;6.42;53.74
22753;BME280;11543;43.144;24.684;2023-04-07T03:53:39;98596.75;;;6.33;54.54
22753;BME280;11543;43.144;24.684;2023-04-07T03:56:05;98608.84;;;6.37;55.45
22753;BME280;11543;43.144;24.684;2023-04-07T03:58:30;98604.84;;;6.22;55.63
22753;BME280;11543;43.144;24.684;2023-04-07T04:00:56;98608.94;;;6.26;55.40
22753;BME280;11543;43.144;24.684;2023-04-07T04:03:21;98618.63;;;6.27;55.89
22753;BME280;11543;43.144;24.684;2023-04-07T04:05:47;98606.28;;;6.26;55.44
22753;BME280;11543;43.144;24.684;2023-04-07T04:08:12;98606.28;;;6.26;56.45
22753;BME280;11543;43.144;24.684;2023-04-07T04:10:38;98612.41;;;6.17;56.13
22753;BME280;11543;43.144;24.684;2023-04-07T04:13:03;98611.34;;;5.88;55.79
22753;BME280;11543;43.144;24.684;2023-04-07T04:15:32;98624.47;;;5.80;56.18
22753;BME280;11543;43.144;24.684;2023-04-07T04:17:57;98615.63;;;5.58;56.43
22753;BME280;11543;43.144;24.684;2023-04-07T04:20:23;98603.16;;;5.38;56.74
22753;BME280;11543;43.144;24.684;2023-04-07T04:22:48;98612.13;;;5.37;57.28
22753;BME280;11543;43.144;24.684;2023-04-07T04:25:15;98625.38;;;5.48;58.10
22753;BME280;11543;43.144;24.684;2023-04-07T04:27:41;98619.28;;;5.57;57.50
22753;BME280;11543;43.144;24.684;2023-04-07T04:30:07;98628.47;;;5.53;57.17
22753;BME280;11543;43.144;24.684;2023-04-07T04:32:32;98636.78;;;5.39;57.13
22753;BME280;11543;43.144;24.684;2023-04-07T04:34:58;98630.34;;;5.41;58.03
22753;BME280;11543;43.144;24.684;2023-04-07T04:37:24;98625.28;;;5.38;57.95
22753;BME280;11543;43.144;24.684;2023-04-07T04:39:50;98642.00;;;5.61;58.19
22753;BME280;11543;43.144;24.684;2023-04-07T04:42:16;98634.78;;;5.73;58.47
22753;BME280;11543;43.144;24.684;2023-04-07T04:44:42;98623.28;;;5.72;58.12
22753;BME280;11543;43.144;24.684;2023-04-07T04:47:07;98623.50;;;5.81;58.16
22753;BME280;11543;43.144;24.684;2023-04-07T04:49:33;98644.97;;;5.89;57.94
22753;BME280;11543;43.144;24.684;2023-04-07T04:51:59;98626.47;;;5.87;57.69
22753;BME280;11543;43.144;24.684;2023-04-07T04:54:24;98628.25;;;5.98;57.80
22753;BME280;11543;43.144;24.684;2023-04-07T04:56:49;98634.25;;;6.11;58.30
22753;BME280;11543;43.144;24.684;2023-04-07T04:59:15;98632.88;;;6.17;58.01
22753;BME280;11543;43.144;24.684;2023-04-07T05:01:40;98635.13;;;6.21;58.18
22753;BME280;11543;43.144;24.684;2023-04-07T05:04:08;98629.09;;;6.19;57.86
22753;BME280;11543;43.144;24.684;2023-04-07T05:06:34;98651.28;;;6.29;57.72
22753;BME280;11543;43.144;24.684;2023-04-07T05:09:00;98645.25;;;6.27;58.09
22753;BME280;11543;43.144;24.684;2023-04-07T05:11:26;98643.47;;;6.07;58.04
22753;BME280;11543;43.144;24.684;2023-04-07T05:13:51;98654.03;;;5.97;58.53
22753;BME280;11543;43.144;24.684;2023-04-07T05:16:17;98660.84;;;5.90;58.57
22753;BME280;11543;43.144;24.684;2023-04-07T05:18:42;98660.03;;;5.79;59.29
22753;BME280;11543;43.144;24.684;2023-04-07T05:21:10;98666.00;;;5.71;59.97
22753;BME280;11543;43.144;24.684;2023-04-07T05:23:35;98668.09;;;5.67;59.73
22753;BME280;11543;43.144;24.684;2023-04-07T05:26:01;98666.16;;;5.69;60.34
22753;BME280;11543;43.144;24.684;2023-04-07T05:28:27;98663.41;;;5.81;60.30
22753;BME280;11543;43.144;24.684;2023-04-07T05:30:53;98669.91;;;5.88;60.66
22753;BME280;11543;43.144;24.684;2023-04-07T05:33:18;98672.53;;;5.99;60.96
22753;BME280;11543;43.144;24.684;2023-04-07T05:35:44;98653.91;;;5.99;60.90
22753;BME280;11543;43.144;24.684;2023-04-07T05:38:10;98669.69;;;6.12;60.35
22753;BME280;11543;43.144;24.684;2023-04-07T05:40:36;98678.91;;;6.28;60.54
22753;BME280;11543;43.144;24.684;2023-04-07T05:43:02;98673.38;;;6.41;60.26
22753;BME280;11543;43.144;24.684;2023-04-07T05:45:27;98676.78;;;6.53;59.97
22753;BME280;11543;43.144;24.684;2023-04-07T05:47:53;98676.50;;;6.56;59.64
22753;BME280;11543;43.144;24.684;2023-04-07T05:50:19;98675.00;;;6.63;59.50
22753;BME280;11543;43.144;24.684;2023-04-07T05:52:44;98676.84;;;6.72;59.74
22753;BME280;11543;43.144;24.684;2023-04-07T05:55:11;98678.28;;;6.76;59.25
22753;BME280;11543;43.144;24.684;2023-04-07T05:57:37;98667.06;;;6.82;59.05
22753;BME280;11543;43.144;24.684;2023-04-07T06:00:03;98681.59;;;6.99;58.63
22753;BME280;11543;43.144;24.684;2023-04-07T06:02:29;98674.44;;;6.99;58.86
22753;BME280;11543;43.144;24.684;2023-04-07T06:04:54;98680.34;;;7.03;58.35
22753;BME280;11543;43.144;24.684;2023-04-07T06:07:20;98679.63;;;7.01;58.83
22753;BME280;11543;43.144;24.684;2023-04-07T06:09:46;98680.78;;;7.08;58.78
22753;BME280;11543;43.144;24.684;2023-04-07T06:12:11;98668.28;;;7.09;58.86
22753;BME280;11543;43.144;24.684;2023-04-07T06:14:40;98680.38;;;7.22;58.51
22753;BME280;11543;43.144;24.684;2023-04-07T06:17:05;98673.91;;;7.15;58.07
22753;BME280;11543;43.144;24.684;2023-04-07T06:19:32;98677.25;;;7.08;56.44
22753;BME280;11543;43.144;24.684;2023-04-07T06:21:57;98670.22;;;6.97;56.11
22753;BME280;11543;43.144;24.684;2023-04-07T06:24:23;98683.09;;;6.92;54.43
22753;BME280;11543;43.144;24.684;2023-04-07T06:26:51;98678.88;;;6.89;52.64
22753;BME280;11543;43.144;24.684;2023-04-07T06:29:16;98679.41;;;6.83;52.87
22753;BME280;11543;43.144;24.684;2023-04-07T06:31:42;98683.69;;;6.95;51.63
22753;BME280;11543;43.144;24.684;2023-04-07T06:34:07;98684.00;;;7.12;52.35
22753;BME280;11543;43.144;24.684;2023-04-07T06:36:33;98696.13;;;7.35;51.13
22753;BME280;11543;43.144;24.684;2023-04-07T06:38:59;98692.88;;;7.31;50.24
22753;BME280;11543;43.144;24.684;2023-04-07T06:41:24;98691.78;;;7.34;50.25
22753;BME280;11543;43.144;24.684;2023-04-07T06:43:50;98683.50;;;7.37;50.31
22753;BME280;11543;43.144;24.684;2023-04-07T06:46:16;98694.75;;;7.50;50.69
22753;BME280;11543;43.144;24.684;2023-04-07T06:48:41;98686.03;;;7.58;50.15
22753;BME280;11543;43.144;24.684;2023-04-07T06:51:07;98687.16;;;7.75;49.85
22753;BME280;11543;43.144;24.684;2023-04-07T06:53:32;98689.44;;;7.89;49.58
22753;BME280;11543;43.144;24.684;2023-04-07T06:56:16;98687.16;;;7.94;47.48
22753;BME280;11543;43.144;24.684;2023-04-07T06:58:42;98688.84;;;7.95;47.82
22753;BME280;11543;43.144;24.684;2023-04-07T07:01:07;98688.81;;;8.14;47.40
22753;BME280;11543;43.144;24.684;2023-04-07T07:03:33;98694.16;;;8.34;48.12
22753;BME280;11543;43.144;24.684;2023-04-07T07:05:58;98693.41;;;8.51;45.98
22753;BME280;11543;43.144;24.684;2023-04-07T07:08:25;98690.09;;;8.67;45.53
22753;BME280;11543;43.144;24.684;2023-04-07T07:10:51;98683.66;;;8.69;45.38
22753;BME280;11543;43.144;24.684;2023-04-07T07:13:18;98696.50;;;8.93;45.09
22753;BME280;11543;43.144;24.684;2023-04-07T07:15:45;98698.44;;;9.01;45.79
22753;BME280;11543;43.144;24.684;2023-04-07T07:18:11;98703.72;;;9.10;45.53
22753;BME280;11543;43.144;24.684;2023-04-07T07:20:37;98701.19;;;9.09;43.87
22753;BME280;11543;43.144;24.684;2023-04-07T07:23:02;98698.91;;;9.14;44.53
22753;BME280;11543;43.144;24.684;2023-04-07T07:25:28;98695.94;;;9.17;45.82
22753;BME280;11543;43.144;24.684;2023-04-07T07:27:54;98699.69;;;9.24;44.72
22753;BME280;11543;43.144;24.684;2023-04-07T07:30:21;98715.47;;;9.27;44.82
22753;BME280;11543;43.144;24.684;2023-04-07T07:32:47;98718.22;;;9.35;44.73
22753;BME280;11543;43.144;24.684;2023-04-07T07:35:12;98724.19;;;9.29;43.25
22753;BME280;11543;43.144;24.684;2023-04-07T07:37:38;98730.03;;;9.42;44.06
22753;BME280;11543;43.144;24.684;2023-04-07T07:40:04;98722.06;;;9.50;43.48
22753;BME280;11543;43.144;24.684;2023-04-07T07:42:30;98726.78;;;9.66;43.41
22753;BME280;11543;43.144;24.684;2023-04-07T07:44:56;98718.84;;;9.74;42.88
22753;BME280;11543;43.144;24.684;2023-04-07T07:47:22;98716.47;;;9.89;43.28
22753;BME280;11543;43.144;24.684;2023-04-07T07:49:48;98713.53;;;10.00;42.84
22753;BME280;11543;43.144;24.684;2023-04-07T07:52:13;98714.91;;;10.04;41.70
22753;BME280;11543;43.144;24.684;2023-04-07T07:54:39;98713.97;;;10.13;43.81
22753;BME280;11543;43.144;24.684;2023-04-07T07:57:05;98724.78;;;10.21;42.37
22753;BME280;11543;43.144;24.684;2023-04-07T07:59:31;98717.81;;;10.29;41.65
22753;BME280;11543;43.144;24.684;2023-04-07T08:01:57;98718.78;;;10.45;41.40
22753;BME280;11543;43.144;24.684;2023-04-07T08:04:22;98714.69;;;10.59;42.38
22753;BME280;11543;43.144;24.684;2023-04-07T08:06:49;98710.47;;;10.82;41.96
22753;BME280;11543;43.144;24.684;2023-04-07T08:09:15;98709.06;;;11.04;40.97
22753;BME280;11543;43.144;24.684;2023-04-07T08:11:41;98714.25;;;11.06;40.73
22753;BME280;11543;43.144;24.684;2023-04-07T08:14:06;98719.66;;;11.14;41.97
22753;BME280;11543;43.144;24.684;2023-04-07T08:16:32;98709.22;;;11.03;39.64
22753;BME280;11543;43.144;24.684;2023-04-07T08:18:57;98713.28;;;11.15;39.88
22753;BME280;11543;43.144;24.684;2023-04-07T08:21:23;98712.38;;;11.32;40.11
22753;BME280;11543;43.144;24.684;2023-04-07T08:23:48;98711.06;;;11.44;39.75
22753;BME280;11543;43.144;24.684;2023-04-07T08:26:14;98731.25;;;11.57;40.70
22753;BME280;11543;43.144;24.684;2023-04-07T08:28:39;98714.00;;;11.25;38.66
22753;BME280;11543;43.144;24.684;2023-04-07T08:31:05;98722.72;;;11.19;39.74
22753;BME280;11543;43.144;24.684;2023-04-07T08:33:31;98719.75;;;11.30;40.05
22753;BME280;11543;43.144;24.684;2023-04-07T08:35:57;98714.38;;;11.30;39.14
22753;BME280;11543;43.144;24.684;2023-04-07T08:38:23;98725.53;;;11.60;40.44
22753;BME280;11543;43.144;24.684;2023-04-07T08:40:55;98728.25;;;11.68;40.29
22753;BME280;11543;43.144;24.684;2023-04-07T08:43:23;98727.56;;;11.66;39.66
22753;BME280;11543;43.144;24.684;2023-04-07T08:45:52;98727.88;;;11.55;38.99
22753;BME280;11543;43.144;24.684;2023-04-07T08:48:22;98740.41;;;11.88;41.37
22753;BME280;11543;43.144;24.684;2023-04-07T08:50:50;98725.28;;;11.95;41.83
22753;BME280;11543;43.144;24.684;2023-04-07T08:53:20;98729.34;;;12.07;40.87
22753;BME280;11543;43.144;24.684;2023-04-07T08:55:47;98725.63;;;11.92;40.42
22753;BME280;11543;43.144;24.684;2023-04-07T08:58:13;98726.31;;;12.02;40.32
22753;BME280;11543;43.144;24.684;2023-04-07T09:00:42;98727.31;;;11.93;40.95
22753;BME280;11543;43.144;24.684;2023-04-07T09:03:10;98729.34;;;12.07;40.23
22753;BME280;11543;43.144;24.684;2023-04-07T09:05:36;98724.00;;;12.24;41.46
22753;BME280;11543;43.144;24.684;2023-04-07T09:08:02;98735.06;;;12.37;39.97
22753;BME280;11543;43.144;24.684;2023-04-07T09:10:28;98733.72;;;12.49;39.31
22753;BME280;11543;43.144;24.684;2023-04-07T09:12:53;98728.00;;;12.60;38.69
22753;BME280;11543;43.144;24.684;2023-04-07T09:15:19;98740.09;;;12.64;39.60
22753;BME280;11543;43.144;24.684;2023-04-07T09:17:45;98733.19;;;12.70;39.96
22753;BME280;11543;43.144;24.684;2023-04-07T09:20:11;98736.03;;;12.68;41.30
22753;BME280;11543;43.144;24.684;2023-04-07T09:22:39;98738.09;;;12.42;41.07
22753;BME280;11543;43.144;24.684;2023-04-07T09:27:59;98738.44;;;12.47;41.37
22753;BME280;11543;43.144;24.684;2023-04-07T09:30:25;98735.41;;;12.34;40.62
22753;BME280;11543;43.144;24.684;2023-04-07T09:32:51;98741.81;;;12.41;41.42
22753;BME280;11543;43.144;24.684;2023-04-07T09:35:17;98740.47;;;12.29;40.79
22753;BME280;11543;43.144;24.684;2023-04-07T09:37:42;98737.41;;;12.07;41.43
22753;BME280;11543;43.144;24.684;2023-04-07T09:40:09;98749.88;;;12.25;44.49
22753;BME280;11543;43.144;24.684;2023-04-07T09:42:43;98738.28;;;12.16;42.21
22753;BME280;11543;43.144;24.684;2023-04-07T09:45:09;98741.81;;;12.25;43.90
22753;BME280;11543;43.144;24.684;2023-04-07T09:47:36;98737.25;;;12.09;42.43
22753;BME280;11543;43.144;24.684;2023-04-07T09:50:02;98738.09;;;12.26;43.08
22753;BME280;11543;43.144;24.684;2023-04-07T09:52:50;98748.84;;;12.09;41.47
22753;BME280;11543;43.144;24.684;2023-04-07T09:55:22;98745.44;;;11.91;42.34
22753;BME280;11543;43.144;24.684;2023-04-07T09:57:49;98757.38;;;11.89;43.69
22753;BME280;11543;43.144;24.684;2023-04-07T10:00:15;98750.78;;;11.75;43.36
22753;BME280;11543;43.144;24.684;2023-04-07T10:02:41;98751.50;;;11.85;43.83
22753;BME280;11543;43.144;24.684;2023-04-07T10:05:07;98755.88;;;12.02;42.48
22753;BME280;11543;43.144;24.684;2023-04-07T10:07:34;98744.84;;;12.30;42.87
22753;BME280;11543;43.144;24.684;2023-04-07T10:09:59;98741.47;;;12.36;43.54
22753;BME280;11543;43.144;24.684;2023-04-07T10:12:26;98745.47;;;12.72;43.22
22753;BME280;11543;43.144;24.684;2023-04-07T10:14:52;98745.75;;;13.02;42.18
22753;BME280;11543;43.144;24.684;2023-04-07T10:17:19;98737.25;;;13.29;41.55
22753;BME280;11543;43.144;24.684;2023-04-07T10:19:47;98739.81;;;13.23;39.93
22753;BME280;11543;43.144;24.684;2023-04-07T10:22:14;98745.03;;;13.24;40.76
22753;BME280;11543;43.144;24.684;2023-04-07T10:24:54;98746.72;;;13.25;40.02
22753;BME280;11543;43.144;24.684;2023-04-07T10:27:26;98752.09;;;13.25;40.21
22753;BME280;11543;43.144;24.684;2023-04-07T10:29:53;98752.38;;;13.38;40.61
22753;BME280;11543;43.144;24.684;2023-04-07T10:32:20;98755.44;;;13.66;40.41
22753;BME280;11543;43.144;24.684;2023-04-07T10:37:21;98749.94;;;13.83;38.87
22753;BME280;11543;43.144;24.684;2023-04-07T10:39:48;98750.44;;;13.86;38.42
22753;BME280;11543;43.144;24.684;2023-04-07T10:45:05;98749.28;;;14.12;38.41
22753;BME280;11543;43.144;24.684;2023-04-07T10:47:31;98752.38;;;14.23;37.65
22753;BME280;11543;43.144;24.684;2023-04-07T10:52:42;98748.44;;;14.11;36.74
22753;BME280;11543;43.144;24.684;2023-04-07T10:55:30;98748.41;;;14.34;37.28
22753;BME280;11543;43.144;24.684;2023-04-07T10:58:21;98752.25;;;14.40;36.76
22753;BME280;11543;43.144;24.684;2023-04-07T11:03:23;98748.16;;;14.66;36.54
22753;BME280;11543;43.144;24.684;2023-04-07T11:05:49;98748.41;;;14.80;37.69
22753;BME280;11543;43.144;24.684;2023-04-07T11:08:31;98742.63;;;14.83;36.53
22753;BME280;11543;43.144;24.684;2023-04-07T11:10:57;98758.09;;;14.89;35.97
22753;BME280;11543;43.144;24.684;2023-04-07T11:13:22;98745.25;;;14.91;36.31
22753;BME280;11543;43.144;24.684;2023-04-07T11:15:49;98762.56;;;14.82;37.57
22753;BME280;11543;43.144;24.684;2023-04-07T11:18:20;98749.09;;;14.74;36.78
22753;BME280;11543;43.144;24.684;2023-04-07T11:23:17;98751.09;;;14.42;36.75
22753;BME280;11543;43.144;24.684;2023-04-07T11:25:44;98751.41;;;14.39;37.66
22753;BME280;11543;43.144;24.684;2023-04-07T11:28:11;98756.22;;;14.29;37.63
22753;BME280;11543;43.144;24.684;2023-04-07T11:30:38;98754.19;;;14.31;37.03
22753;BME280;11543;43.144;24.684;2023-04-07T11:33:03;98750.09;;;14.35;37.33
22753;BME280;11543;43.144;24.684;2023-04-07T11:35:29;98737.34;;;14.29;37.58
22753;BME280;11543;43.144;24.684;2023-04-07T11:37:59;98750.94;;;14.35;38.33
22753;BME280;11543;43.144;24.684;2023-04-07T11:40:35;98750.47;;;14.09;37.96
22753;BME280;11543;43.144;24.684;2023-04-07T11:45:45;98767.25;;;14.19;40.25
22753;BME280;11543;43.144;24.684;2023-04-07T11:48:31;98755.03;;;14.31;39.62
22753;BME280;11543;43.144;24.684;2023-04-07T11:50:58;98750.09;;;14.35;39.52
22753;BME280;11543;43.144;24.684;2023-04-07T11:53:25;98753.47;;;14.37;39.15
22753;BME280;11543;43.144;24.684;2023-04-07T11:56:19;98761.25;;;14.32;40.31
22753;BME280;11543;43.144;24.684;2023-04-07T11:58:49;98756.94;;;14.23;40.25
22753;BME280;11543;43.144;24.684;2023-04-07T12:01:15;98758.81;;;13.99;40.39
22753;BME280;11543;43.144;24.684;2023-04-07T12:03:57;98766.84;;;14.08;39.90
22753;BME280;11543;43.144;24.684;2023-04-07T12:06:27;98768.28;;;13.95;40.93
22753;BME280;11543;43.144;24.684;2023-04-07T12:09:02;98756.22;;;13.75;40.42
22753;BME280;11543;43.144;24.684;2023-04-07T12:11:29;98760.25;;;13.79;41.05
22753;BME280;11543;43.144;24.684;2023-04-07T12:13:56;98767.59;;;13.62;40.75
22753;BME280;11543;43.144;24.684;2023-04-07T12:16:22;98776.25;;;13.50;40.98
22753;BME280;11543;43.144;24.684;2023-04-07T12:18:49;98779.25;;;13.55;42.04
22753;BME280;11543;43.144;24.684;2023-04-07T12:21:16;98771.56;;;13.44;42.70
22753;BME280;11543;43.144;24.684;2023-04-07T12:23:42;98777.34;;;13.32;42.00
22753;BME280;11543;43.144;24.684;2023-04-07T12:26:07;98777.50;;;13.31;41.20
22753;BME280;11543;43.144;24.684;2023-04-07T12:28:33;98771.78;;;13.34;41.52
22753;BME280;11543;43.144;24.684;2023-04-07T12:30:58;98775.63;;;13.39;40.87
22753;BME280;11543;43.144;24.684;2023-04-07T12:33:24;98775.59;;;13.48;41.52
22753;BME280;11543;43.144;24.684;2023-04-07T12:35:50;98781.94;;;13.55;41.65
22753;BME280;11543;43.144;24.684;2023-04-07T12:38:16;98776.22;;;13.58;41.68
22753;BME280;11543;43.144;24.684;2023-04-07T12:40:42;98787.31;;;13.63;42.88
22753;BME280;11543;43.144;24.684;2023-04-07T12:43:08;98779.88;;;13.65;41.56
22753;BME280;11543;43.144;24.684;2023-04-07T12:45:33;98772.44;;;13.67;41.09
22753;BME280;11543;43.144;24.684;2023-04-07T12:47:59;98774.09;;;13.76;41.77
22753;BME280;11543;43.144;24.684;2023-04-07T12:50:24;98772.34;;;13.83;40.76
22753;BME280;11543;43.144;24.684;2023-04-07T12:52:51;98786.59;;;13.69;40.23
22753;BME280;11543;43.144;24.684;2023-04-07T12:55:17;98788.22;;;13.78;40.62
22753;BME280;11543;43.144;24.684;2023-04-07T12:57:43;98785.50;;;13.86;41.05
22753;BME280;11543;43.144;24.684;2023-04-07T13:00:09;98782.47;;;13.89;40.59
22753;BME280;11543;43.144;24.684;2023-04-07T13:02:34;98787.03;;;13.89;41.16
22753;BME280;11543;43.144;24.684;2023-04-07T13:05:03;98788.91;;;13.80;40.38
22753;BME280;11543;43.144;24.684;2023-04-07T13:07:29;98780.16;;;13.78;41.95
22753;BME280;11543;43.144;24.684;2023-04-07T13:09:55;98781.28;;;13.53;40.05
22753;BME280;11543;43.144;24.684;2023-04-07T13:12:22;98794.72;;;13.61;41.52
22753;BME280;11543;43.144;24.684;2023-04-07T13:14:48;98789.25;;;13.77;40.74
22753;BME280;11543;43.144;24.684;2023-04-07T13:17:14;98788.53;;;13.83;39.80
22753;BME280;11543;43.144;24.684;2023-04-07T13:19:39;98778.94;;;13.81;39.96